Pagrindinis puslapis
METAR-TAF:

METAR-TAF

Oro uostai :

Los Alamos, Naujoji Meksika, Jungtinės Amerikos Valstijos

platuma: 35-53N, ilguma: 106-17W, Aukštis: 2179 m

Dabartinis oras

Ataskaita buvo paskelbta 11 minutes, ne 17:35 UTC
Vėjas 4 kt iš Rytų/Pietryčių
Temperatūra 10°C
Drėgmė 32%
Slėgis 1024 hPa
Matomumas: 16.1 km
Giedras dangus

METAR: KLAM 311735Z AUTO 11004KT 10SM CLR 10/M06 A3023 RMK AO2 T00961065

Laikas: 11:46 (17:46 UTC)


TAF: trūkstamas

Orai ataskaitas ir orų prognozės (METAR, TAF).

turimą stotys yra geltonos ir raudonos taškus žemėlapyje.

Perkelti pele per norėdami pamatyti stoties vardą.

Tada spustelėkite, norėdami matyti oro stebėjimo ir prognozės.

Norėdami pakeisti žemėlapį: spustelėkite ant žalios mygtukų su juodo kryžiaus žemyn,; žalią mygtuką su brūkšneliu, jei norite nutolinti; arba žalių rodyklių gretimoms žemėlapius.


METAR-TAF: